createdAt,value
2016-09-27T00:00:49.579Z,17.46
2016-09-27T00:01:49.597Z,17.44
2016-09-27T00:02:49.619Z,17.52
2016-09-27T00:03:49.647Z,17.41
2016-09-27T00:04:49.665Z,17.42
2016-09-27T00:05:49.696Z,17.3
2016-09-27T00:06:49.707Z,17.41
2016-09-27T00:07:49.734Z,17.31
2016-09-27T00:08:49.756Z,17.38
2016-09-27T00:09:49.782Z,17.36
2016-09-27T00:10:49.798Z,17.29
2016-09-27T00:11:49.818Z,17.38
2016-09-27T00:12:49.842Z,17.34
2016-09-27T00:13:49.866Z,17.34
2016-09-27T00:14:49.883Z,17.33
2016-09-27T00:15:49.908Z,17.31
2016-09-27T00:16:49.932Z,17.31
2016-09-27T00:17:49.958Z,17.23
2016-09-27T00:18:50.069Z,17.2
2016-09-27T00:19:49.994Z,17.24
2016-09-27T00:20:50.120Z,17.26
2016-09-27T00:21:50.154Z,17.2
2016-09-27T00:22:50.064Z,17.23
2016-09-27T00:23:50.372Z,17.26
2016-09-27T00:24:50.205Z,17.29
2016-09-27T00:25:50.245Z,17.22
2016-09-27T00:26:50.248Z,17.16
2016-09-27T00:27:50.255Z,17.19
2016-09-27T00:28:50.379Z,17.15
2016-09-27T00:29:50.263Z,17.15
2016-09-27T00:30:50.273Z,17.23
2016-09-27T00:31:50.282Z,17.12
2016-09-27T00:32:50.290Z,17.09
2016-09-27T00:33:50.450Z,17.15
2016-09-27T00:34:50.413Z,17.16
2016-09-27T00:35:50.356Z,17.11
2016-09-27T00:36:50.363Z,17.11
2016-09-27T00:37:50.391Z,17.14
2016-09-27T00:38:50.456Z,17.11
2016-09-27T00:39:50.421Z,17.05
2016-09-27T00:40:50.449Z,17.05
2016-09-27T00:41:50.464Z,17.05
2016-09-27T00:42:50.492Z,17.05
2016-09-27T00:43:50.511Z,17.02
2016-09-27T00:44:50.540Z,16.99
2016-09-27T00:45:50.560Z,16.97
2016-09-27T00:46:50.585Z,17.06
2016-09-27T00:47:50.601Z,17.04
2016-09-27T00:48:50.631Z,17.04
2016-09-27T00:49:50.653Z,17.05
2016-09-27T00:50:50.656Z,16.96
2016-09-27T00:51:50.707Z,16.97
2016-09-27T00:52:51.024Z,16.99
2016-09-27T00:53:50.732Z,17.04
2016-09-27T00:54:50.758Z,16.99
2016-09-27T00:55:50.787Z,16.99
2016-09-27T00:56:50.805Z,16.97
2016-09-27T00:57:50.826Z,17.08
2016-09-27T00:58:50.845Z,17.04
2016-09-27T00:59:50.871Z,17.01
2016-09-27T01:00:50.895Z,16.89
2016-09-27T01:01:50.905Z,16.89
2016-09-27T01:02:50.925Z,16.89
2016-09-27T01:03:50.943Z,16.86
2016-09-27T01:04:50.968Z,16.89
2016-09-27T01:05:50.991Z,16.93
2016-09-27T01:06:51.011Z,16.83
2016-09-27T01:07:51.032Z,16.81
2016-09-27T01:08:51.063Z,16.81
2016-09-27T01:09:51.081Z,16.79
2016-09-27T01:10:51.103Z,16.75
2016-09-27T01:11:51.455Z,16.84
2016-09-27T01:12:51.162Z,16.81
2016-09-27T01:13:51.178Z,16.79
2016-09-27T01:14:51.191Z,16.81
2016-09-27T01:15:51.206Z,16.81
2016-09-27T01:16:51.241Z,16.86
2016-09-27T01:17:51.259Z,16.79
2016-09-27T01:18:51.278Z,16.79
2016-09-27T01:19:51.287Z,16.83
2016-09-27T01:20:51.322Z,16.79
2016-09-27T01:21:51.344Z,16.79
2016-09-27T01:22:51.371Z,16.74
2016-09-27T01:23:51.382Z,16.78
2016-09-27T01:24:51.403Z,16.74
2016-09-27T01:25:51.421Z,16.75
2016-09-27T01:26:51.446Z,16.75
2016-09-27T01:27:51.462Z,16.79
2016-09-27T01:28:51.495Z,16.65
2016-09-27T01:29:51.518Z,16.75
2016-09-27T01:30:51.547Z,16.65
2016-09-27T01:31:51.567Z,16.65
2016-09-27T01:32:51.575Z,16.71
2016-09-27T01:33:51.602Z,16.64
2016-09-27T01:34:51.636Z,16.61
2016-09-27T01:35:51.642Z,16.64
2016-09-27T01:36:51.663Z,16.64
2016-09-27T01:37:51.679Z,16.66
2016-09-27T01:38:51.712Z,16.65
2016-09-27T01:39:51.732Z,16.64
2016-09-27T01:40:51.756Z,16.61
2016-09-27T01:41:51.768Z,16.61
2016-09-27T01:42:51.801Z,16.51
2016-09-27T01:43:51.820Z,16.51
2016-09-27T01:44:51.844Z,16.53
2016-09-27T01:45:51.873Z,16.51
2016-09-27T01:46:51.894Z,16.53
2016-09-27T01:47:51.903Z,16.53
2016-09-27T01:48:52.048Z,16.47
2016-09-27T01:49:52.035Z,16.49
2016-09-27T01:50:52.055Z,16.57
2016-09-27T01:51:52.198Z,16.47
2016-09-27T01:52:52.203Z,16.54
2016-09-27T01:53:52.203Z,16.46
2016-09-27T01:54:52.210Z,16.51
2016-09-27T01:55:52.221Z,16.5
2016-09-27T01:56:52.225Z,16.43
2016-09-27T01:57:52.238Z,16.46
2016-09-27T01:58:52.455Z,16.49
2016-09-27T01:59:52.252Z,16.38
2016-09-27T02:00:52.387Z,16.41
2016-09-27T02:01:52.213Z,16.41
2016-09-27T02:02:52.219Z,16.39
2016-09-27T02:03:52.560Z,16.41
2016-09-27T02:04:52.272Z,16.39
2016-09-27T02:05:52.288Z,16.38
2016-09-27T02:06:52.315Z,16.38
2016-09-27T02:07:52.334Z,16.39
2016-09-27T02:08:52.360Z,16.41
2016-09-27T02:09:52.374Z,16.29
2016-09-27T02:10:52.395Z,16.38
2016-09-27T02:11:52.416Z,16.21
2016-09-27T02:12:52.443Z,16.24
2016-09-27T02:13:52.471Z,16.33
2016-09-27T02:14:52.490Z,16.35
2016-09-27T02:15:52.498Z,16.24
2016-09-27T02:16:52.527Z,16.29
2016-09-27T02:17:52.550Z,16.28
2016-09-27T02:18:52.565Z,16.24
2016-09-27T02:19:52.577Z,16.28
2016-09-27T02:20:52.613Z,16.21
2016-09-27T02:21:52.640Z,16.23
2016-09-27T02:22:52.655Z,16.29
2016-09-27T02:23:52.663Z,16.24
2016-09-27T02:24:52.699Z,16.21
2016-09-27T02:25:52.711Z,16.26
2016-09-27T02:26:52.737Z,16.2
2016-09-27T02:27:52.771Z,16.21
2016-09-27T02:28:52.782Z,16.16
2016-09-27T02:29:52.799Z,16.15
2016-09-27T02:30:52.822Z,16.13
2016-09-27T02:31:52.851Z,16.17
2016-09-27T02:32:52.981Z,16.12
2016-09-27T02:33:52.999Z,16.13
2016-09-27T02:34:52.989Z,16.17
2016-09-27T02:35:53.013Z,16.15
2016-09-27T02:36:53.037Z,16.15
2016-09-27T02:37:53.061Z,16.13
2016-09-27T02:38:53.421Z,16.16
2016-09-27T02:39:53.137Z,16.15
2016-09-27T02:40:53.142Z,16.04
2016-09-27T02:41:53.152Z,16.13
2016-09-27T02:42:53.285Z,16.08
2016-09-27T02:43:53.296Z,16.08
2016-09-27T02:44:53.311Z,16.09
2016-09-27T02:45:53.316Z,16.05
2016-09-27T02:46:53.327Z,16.02
2016-09-27T02:47:53.324Z,16
2016-09-27T02:48:53.335Z,15.97
2016-09-27T02:49:53.344Z,16.02
2016-09-27T02:50:53.570Z,16.05
2016-09-27T02:51:53.362Z,16
2016-09-27T02:52:53.328Z,16.02
2016-09-27T02:53:53.330Z,15.94
2016-09-27T02:54:53.345Z,15.92
2016-09-27T02:55:53.354Z,16.02
2016-09-27T02:56:53.374Z,15.97
2016-09-27T02:57:53.392Z,15.98
2016-09-27T02:58:53.418Z,15.94
2016-09-27T02:59:53.439Z,16.04
2016-09-27T03:00:53.451Z,16.01
2016-09-27T03:01:53.480Z,15.98
2016-09-27T03:02:53.499Z,16
2016-09-27T03:03:53.521Z,16.01
2016-09-27T03:04:53.540Z,15.98
2016-09-27T03:05:53.572Z,15.98
2016-09-27T03:06:53.901Z,16.01
2016-09-27T03:07:53.610Z,15.94
2016-09-27T03:08:53.633Z,15.86
2016-09-27T03:09:53.656Z,15.91
2016-09-27T03:10:53.671Z,15.88
2016-09-27T03:11:53.685Z,15.91
2016-09-27T03:12:53.712Z,15.86
2016-09-27T03:13:53.738Z,15.91
2016-09-27T03:14:53.743Z,15.9
2016-09-27T03:15:53.775Z,15.92
2016-09-27T03:16:53.805Z,15.9
2016-09-27T03:17:53.817Z,15.92
2016-09-27T03:18:53.836Z,15.83
2016-09-27T03:19:53.884Z,15.94
2016-09-27T03:20:53.924Z,15.88
2016-09-27T03:21:53.901Z,15.82
2016-09-27T03:22:53.948Z,15.76
2016-09-27T03:23:53.995Z,15.8
2016-09-27T03:24:53.960Z,15.8
2016-09-27T03:25:53.988Z,15.8
2016-09-27T03:26:54.003Z,15.84
2016-09-27T03:27:54.028Z,15.82
2016-09-27T03:28:54.046Z,15.84
2016-09-27T03:29:54.073Z,15.75
2016-09-27T03:30:54.092Z,15.79
2016-09-27T03:31:54.111Z,15.82
2016-09-27T03:32:54.127Z,15.83
2016-09-27T03:33:54.159Z,15.82
2016-09-27T03:34:54.184Z,15.75
2016-09-27T03:35:54.203Z,15.75
2016-09-27T03:36:54.214Z,15.68
2016-09-27T03:37:54.565Z,15.73
2016-09-27T03:38:54.255Z,15.75
2016-09-27T03:39:54.585Z,15.62
2016-09-27T03:40:54.627Z,15.72
2016-09-27T03:41:54.327Z,15.73
2016-09-27T03:42:54.341Z,15.68
2016-09-27T03:43:54.361Z,15.68
2016-09-27T03:44:54.390Z,15.7
2016-09-27T03:45:54.405Z,15.62
2016-09-27T03:46:54.429Z,15.67
2016-09-27T03:47:54.463Z,15.62
2016-09-27T03:48:54.472Z,15.61
2016-09-27T03:49:54.498Z,15.67
2016-09-27T03:50:54.521Z,15.61
2016-09-27T03:51:54.527Z,15.68
2016-09-27T03:52:54.550Z,15.54
2016-09-27T03:53:54.589Z,15.68
2016-09-27T03:54:54.592Z,15.7
2016-09-27T03:55:54.617Z,15.68
2016-09-27T03:56:54.642Z,15.67
2016-09-27T03:57:54.657Z,15.64
2016-09-27T03:58:54.676Z,15.59
2016-09-27T03:59:54.697Z,15.59
2016-09-27T04:00:54.727Z,15.55
2016-09-27T04:01:54.749Z,15.55
2016-09-27T04:02:54.771Z,15.59
2016-09-27T04:03:54.791Z,15.47
2016-09-27T04:04:54.811Z,15.57
2016-09-27T04:05:54.822Z,15.58
2016-09-27T04:06:54.848Z,15.59
2016-09-27T04:07:54.860Z,15.54
2016-09-27T04:08:54.891Z,15.57
2016-09-27T04:09:55.017Z,15.49
2016-09-27T04:10:55.017Z,15.46
2016-09-27T04:11:55.071Z,15.55
2016-09-27T04:12:55.200Z,15.58
2016-09-27T04:13:55.216Z,15.49
2016-09-27T04:14:55.214Z,15.47
2016-09-27T04:15:55.228Z,15.46
2016-09-27T04:16:55.238Z,15.47
2016-09-27T04:17:55.237Z,15.52
2016-09-27T04:18:55.248Z,15.39
2016-09-27T04:19:55.263Z,15.46
2016-09-27T04:20:55.260Z,15.51
2016-09-27T04:21:55.307Z,15.51
2016-09-27T04:22:55.319Z,15.49
2016-09-27T04:23:55.329Z,15.42
2016-09-27T04:24:55.334Z,15.43
2016-09-27T04:25:55.337Z,15.4
2016-09-27T04:26:55.338Z,15.44
2016-09-27T04:27:55.346Z,15.36
2016-09-27T04:28:55.406Z,15.4
2016-09-27T04:29:55.404Z,15.36
2016-09-27T04:30:55.418Z,15.35
2016-09-27T04:31:55.440Z,15.37
2016-09-27T04:32:55.453Z,15.44
2016-09-27T04:33:55.419Z,15.43
2016-09-27T04:34:55.430Z,15.33
2016-09-27T04:35:55.460Z,15.36
2016-09-27T04:36:55.470Z,15.36
2016-09-27T04:37:55.485Z,15.36
2016-09-27T04:38:55.514Z,15.31
2016-09-27T04:39:55.538Z,15.4
2016-09-27T04:40:55.543Z,15.36
2016-09-27T04:41:55.593Z,15.43
2016-09-27T04:42:55.809Z,15.33
2016-09-27T04:43:55.617Z,15.33
2016-09-27T04:44:55.649Z,15.39
2016-09-27T04:45:55.662Z,15.28
2016-09-27T04:46:55.686Z,15.31
2016-09-27T04:47:55.699Z,15.28
2016-09-27T04:48:55.719Z,15.31
2016-09-27T04:49:55.753Z,15.27
2016-09-27T04:50:55.753Z,15.28
2016-09-27T04:51:55.780Z,15.25
2016-09-27T04:52:55.799Z,15.29
2016-09-27T04:53:55.835Z,15.27
2016-09-27T04:54:55.958Z,15.18
2016-09-27T04:55:55.960Z,15.28
2016-09-27T04:56:56.123Z,15.28
2016-09-27T04:57:56.121Z,15.28
2016-09-27T04:58:56.131Z,15.29
2016-09-27T04:59:56.156Z,15.33
2016-09-27T05:00:56.155Z,15.18
2016-09-27T05:01:56.157Z,15.18
2016-09-27T05:02:56.170Z,15.31
2016-09-27T05:03:56.178Z,15.18
2016-09-27T05:04:56.187Z,15.15
2016-09-27T05:05:56.189Z,15.27
2016-09-27T05:06:56.191Z,15.27
2016-09-27T05:07:56.520Z,15.25
2016-09-27T05:08:56.248Z,15.29
2016-09-27T05:09:56.256Z,15.17
2016-09-27T05:10:56.261Z,15.18
2016-09-27T05:11:56.266Z,15.28
2016-09-27T05:12:56.281Z,15.28
2016-09-27T05:13:56.319Z,15.24
2016-09-27T05:14:56.328Z,15.33
2016-09-27T05:15:56.362Z,15.28
2016-09-27T05:16:56.368Z,15.17
2016-09-27T05:17:56.367Z,15.24
2016-09-27T05:18:56.383Z,15.29
2016-09-27T05:19:56.397Z,15.17
2016-09-27T05:20:56.401Z,15.28
2016-09-27T05:21:56.395Z,15.31
2016-09-27T05:22:56.421Z,15.35
2016-09-27T05:23:56.435Z,15.29
2016-09-27T05:24:56.470Z,15.29
2016-09-27T05:25:56.492Z,15.29
2016-09-27T05:26:56.655Z,15.29
2016-09-27T05:27:56.518Z,15.27
2016-09-27T05:28:56.548Z,15.28
2016-09-27T05:29:56.564Z,15.28
2016-09-27T05:30:56.585Z,15.33
2016-09-27T05:31:56.619Z,15.35
2016-09-27T05:32:56.629Z,15.36
2016-09-27T05:33:56.641Z,15.36
2016-09-27T05:34:56.781Z,15.37
2016-09-27T05:35:56.785Z,15.36
2016-09-27T05:36:56.794Z,15.37
2016-09-27T05:37:56.930Z,15.42
2016-09-27T05:38:56.837Z,15.46
2016-09-27T05:39:56.788Z,15.37
2016-09-27T05:40:56.896Z,15.35
2016-09-27T05:41:56.809Z,15.39
2016-09-27T05:42:56.872Z,15.4
2016-09-27T05:43:56.933Z,15.46
2016-09-27T05:44:56.858Z,15.39
2016-09-27T05:45:56.886Z,15.46
2016-09-27T05:46:57.081Z,15.44
2016-09-27T05:47:57.034Z,15.52
2016-09-27T05:48:57.110Z,15.54
2016-09-27T05:49:57.088Z,15.52
2016-09-27T05:50:57.126Z,15.49
2016-09-27T05:51:57.119Z,15.57
2016-09-27T05:52:57.135Z,15.57
2016-09-27T05:53:57.050Z,15.52
2016-09-27T05:54:57.084Z,15.59
2016-09-27T05:55:57.099Z,15.54
2016-09-27T05:56:57.113Z,15.55
2016-09-27T05:57:57.140Z,15.58
2016-09-27T05:58:57.160Z,15.59
2016-09-27T05:59:57.184Z,15.55
2016-09-27T06:00:57.209Z,15.58
2016-09-27T06:01:57.211Z,15.59
2016-09-27T06:02:57.246Z,15.62
2016-09-27T06:03:57.265Z,15.7
2016-09-27T06:04:57.283Z,15.62
2016-09-27T06:05:57.305Z,15.61
2016-09-27T06:06:57.318Z,15.64
2016-09-27T06:07:57.339Z,15.7
2016-09-27T06:08:57.362Z,15.64
2016-09-27T06:09:57.388Z,15.68
2016-09-27T06:10:57.403Z,15.62
2016-09-27T06:11:57.438Z,15.59
2016-09-27T06:12:57.442Z,15.62
2016-09-27T06:13:57.785Z,15.73
2016-09-27T06:14:57.481Z,15.65
2016-09-27T06:15:57.507Z,15.7
2016-09-27T06:16:57.526Z,15.64
2016-09-27T06:17:57.553Z,15.61
2016-09-27T06:18:57.885Z,15.68
2016-09-27T06:19:57.597Z,15.77
2016-09-27T06:20:57.613Z,15.72
2016-09-27T06:21:57.634Z,15.77
2016-09-27T06:22:57.646Z,15.82
2016-09-27T06:23:57.665Z,15.82
2016-09-27T06:24:57.689Z,15.82
2016-09-27T06:25:57.712Z,15.76
2016-09-27T06:26:57.850Z,15.77
2016-09-27T06:27:57.858Z,15.91
2016-09-27T06:28:57.859Z,15.86
2016-09-27T06:29:57.885Z,15.94
2016-09-27T06:30:57.906Z,15.88
2016-09-27T06:31:58.006Z,15.86
2016-09-27T06:32:58.013Z,15.98
2016-09-27T06:33:58.012Z,15.94
2016-09-27T06:34:58.030Z,16.01
2016-09-27T06:35:59.141Z,16.04
2016-09-27T06:36:58.067Z,16.05
2016-09-27T06:37:58.060Z,16.04
2016-09-27T06:38:58.078Z,16.16
2016-09-27T06:39:58.216Z,16.13
2016-09-27T06:40:58.229Z,16.09
2016-09-27T06:41:58.235Z,16.12
2016-09-27T06:42:58.135Z,16.21
2016-09-27T06:43:58.152Z,16.26
2016-09-27T06:44:58.193Z,16.31
2016-09-27T06:45:58.197Z,16.26
2016-09-27T06:46:58.238Z,16.26
2016-09-27T06:47:58.235Z,16.33
2016-09-27T06:48:58.250Z,16.31
2016-09-27T06:49:58.255Z,16.43
2016-09-27T06:50:58.260Z,16.33
2016-09-27T06:51:58.264Z,16.38
2016-09-27T06:52:58.266Z,16.43
2016-09-27T06:53:58.303Z,16.47
2016-09-27T06:54:58.308Z,16.53
2016-09-27T06:55:58.328Z,16.53
2016-09-27T06:56:58.436Z,16.57
2016-09-27T06:57:58.566Z,16.57
2016-09-27T06:58:58.396Z,16.6
2016-09-27T06:59:58.416Z,16.68
2016-09-27T07:00:58.441Z,16.66
2016-09-27T07:01:58.459Z,16.76
2016-09-27T07:02:58.486Z,16.71
2016-09-27T07:03:58.497Z,16.79
2016-09-27T07:04:58.524Z,16.79
2016-09-27T07:05:58.969Z,16.81
2016-09-27T07:06:58.564Z,16.87
2016-09-27T07:07:58.590Z,16.9
2016-09-27T07:08:58.603Z,16.86
2016-09-27T07:09:58.620Z,17.02
2016-09-27T07:10:58.635Z,17.02
2016-09-27T07:11:58.662Z,17.02
2016-09-27T07:12:58.809Z,16.87
2016-09-27T07:13:58.793Z,17.11
2016-09-27T07:14:58.813Z,17.04
2016-09-27T07:15:58.840Z,17.08
2016-09-27T07:16:58.855Z,17.05
2016-09-27T07:17:58.957Z,17.09
2016-09-27T07:18:58.965Z,17.14
2016-09-27T07:19:58.970Z,17.06
2016-09-27T07:20:58.966Z,17.09
2016-09-27T07:21:59.370Z,17.22
2016-09-27T07:22:59.713Z,17.19
2016-09-27T07:23:59.518Z,17.16
2016-09-27T07:24:59.144Z,17.24
2016-09-27T07:25:59.155Z,17.27
2016-09-27T07:26:59.147Z,17.27
2016-09-27T07:27:59.160Z,17.29
2016-09-27T07:28:59.184Z,17.24
2016-09-27T07:29:59.120Z,17.34
2016-09-27T07:30:59.149Z,17.38
2016-09-27T07:31:59.149Z,17.41
2016-09-27T07:32:59.160Z,17.39
2016-09-27T07:33:59.167Z,17.38
2016-09-27T07:34:59.176Z,17.45
2016-09-27T07:35:59.168Z,17.49
2016-09-27T07:36:59.205Z,17.49
2016-09-27T07:37:59.217Z,17.52
2016-09-27T07:38:59.252Z,17.57
2016-09-27T07:39:59.308Z,17.59
2016-09-27T07:41:00.041Z,17.54
2016-09-27T07:41:59.307Z,17.65
2016-09-27T07:42:59.647Z,17.59
2016-09-27T07:43:59.351Z,17.63
2016-09-27T07:44:59.371Z,17.67
2016-09-27T07:45:59.394Z,17.63
2016-09-27T07:46:59.420Z,17.71
2016-09-27T07:47:59.427Z,17.68
2016-09-27T07:48:59.456Z,17.7
2016-09-27T07:49:59.473Z,17.76
2016-09-27T07:50:59.501Z,17.78
2016-09-27T07:51:59.526Z,17.82
2016-09-27T07:52:59.552Z,17.83
2016-09-27T07:53:59.557Z,17.79
2016-09-27T07:54:59.589Z,17.86
2016-09-27T07:55:59.612Z,17.92
2016-09-27T07:56:59.623Z,17.87
2016-09-27T07:57:59.650Z,17.86
2016-09-27T07:58:59.685Z,17.97
2016-09-27T07:59:59.688Z,18.01
2016-09-27T08:00:59.715Z,18
2016-09-27T08:01:59.757Z,18.01
2016-09-27T08:02:59.751Z,18
2016-09-27T08:03:59.789Z,18.15
2016-09-27T08:04:59.805Z,18.01
2016-09-27T08:05:59.826Z,18.11
2016-09-27T08:06:59.845Z,18.16
2016-09-27T08:07:59.870Z,18.08
2016-09-27T08:08:59.886Z,18.18
2016-09-27T08:09:59.918Z,18.11
2016-09-27T08:10:59.944Z,18.22
2016-09-27T08:11:59.961Z,18.2
2016-09-27T08:12:59.982Z,18.23
2016-09-27T08:14:00.016Z,18.25
2016-09-27T08:15:00.027Z,18.34
2016-09-27T08:16:00.051Z,18.28
2016-09-27T08:17:00.070Z,18.38
2016-09-27T08:18:00.097Z,18.38
2016-09-27T08:19:00.121Z,18.41
2016-09-27T08:20:00.139Z,18.43
2016-09-27T08:21:00.157Z,18.38
2016-09-27T08:22:00.177Z,18.47
2016-09-27T08:23:00.193Z,18.45
2016-09-27T08:24:00.235Z,18.43
2016-09-27T08:25:00.247Z,18.55
2016-09-27T08:26:00.270Z,18.5
2016-09-27T08:27:00.603Z,18.5
2016-09-27T08:28:00.316Z,18.52
2016-09-27T08:29:00.339Z,18.59
2016-09-27T08:30:00.359Z,18.55
2016-09-27T08:31:00.378Z,18.6
2016-09-27T08:32:00.410Z,18.58
2016-09-27T08:33:00.417Z,18.66
2016-09-27T08:34:00.443Z,18.73
2016-09-27T08:35:00.465Z,18.7
2016-09-27T08:36:00.491Z,18.73
2016-09-27T08:37:00.523Z,18.78
2016-09-27T08:38:00.541Z,18.74
2016-09-27T08:39:00.561Z,18.8
2016-09-27T08:40:00.576Z,18.74
2016-09-27T08:41:00.606Z,18.8
2016-09-27T08:42:00.635Z,18.78
2016-09-27T08:43:00.648Z,18.86
2016-09-27T08:44:00.671Z,18.83
2016-09-27T08:45:00.690Z,18.93
2016-09-27T08:46:00.706Z,18.84
2016-09-27T08:47:00.734Z,18.92
2016-09-27T08:48:00.757Z,18.81
2016-09-27T08:49:00.772Z,18.89
2016-09-27T08:50:00.815Z,18.98
2016-09-27T08:51:00.813Z,18.98
2016-09-27T08:52:00.847Z,19.08
2016-09-27T08:53:00.878Z,19.04
2016-09-27T08:54:00.901Z,19.08
2016-09-27T08:55:00.921Z,19.14
2016-09-27T08:56:00.937Z,19.09
2016-09-27T08:57:00.973Z,19.22
2016-09-27T08:58:00.987Z,19.14
2016-09-27T08:59:01.004Z,19.18
2016-09-27T09:00:01.021Z,19.21
2016-09-27T09:01:01.046Z,19.31
2016-09-27T09:02:01.071Z,19.29
2016-09-27T09:03:01.414Z,19.27
2016-09-27T09:04:01.129Z,19.34
2016-09-27T09:05:01.140Z,19.45
2016-09-27T09:06:01.172Z,19.4
2016-09-27T09:07:01.203Z,19.39
2016-09-27T09:08:01.224Z,19.33
2016-09-27T09:09:01.238Z,19.47
2016-09-27T09:10:01.253Z,19.52
2016-09-27T09:11:01.484Z,19.56
2016-09-27T09:12:01.320Z,19.62
2016-09-27T09:13:01.318Z,19.48
2016-09-27T09:14:01.354Z,19.59
2016-09-27T09:15:01.378Z,19.66
2016-09-27T09:16:01.388Z,19.62
2016-09-27T09:17:01.412Z,19.69
2016-09-27T09:18:01.453Z,19.63
2016-09-27T09:19:01.453Z,19.73
2016-09-27T09:20:01.477Z,19.67
2016-09-27T09:21:01.498Z,19.74
2016-09-27T09:22:01.523Z,19.74
2016-09-27T09:23:01.552Z,19.7
2016-09-27T09:24:01.583Z,19.79
2016-09-27T09:25:01.586Z,19.84
2016-09-27T09:26:01.610Z,19.94
2016-09-27T09:27:01.635Z,19.86
2016-09-27T09:28:01.657Z,19.88
2016-09-27T09:29:01.681Z,19.95
2016-09-27T09:30:01.713Z,19.92
2016-09-27T09:31:01.729Z,19.99
2016-09-27T09:32:01.756Z,20.02
2016-09-27T09:33:01.782Z,20.06
2016-09-27T09:34:01.799Z,20.04
2016-09-27T09:35:01.832Z,20.14
2016-09-27T09:36:01.838Z,20.14
2016-09-27T09:37:01.871Z,20.11
2016-09-27T09:38:02.196Z,20.24
2016-09-27T09:39:01.920Z,20.29
2016-09-27T09:40:01.962Z,20.25
2016-09-27T09:41:01.965Z,20.29
2016-09-27T09:42:01.997Z,20.36
2016-09-27T09:43:02.016Z,20.4
2016-09-27T09:44:02.033Z,20.43
2016-09-27T09:45:02.063Z,20.43
2016-09-27T09:46:02.080Z,20.43
2016-09-27T09:47:02.099Z,20.5
2016-09-27T09:48:02.122Z,20.52
2016-09-27T09:49:02.154Z,20.58
2016-09-27T09:50:02.173Z,20.59
2016-09-27T09:51:02.204Z,20.65
2016-09-27T09:52:02.227Z,20.7
2016-09-27T09:53:02.245Z,20.7
2016-09-27T09:54:02.280Z,20.77
2016-09-27T09:55:02.286Z,20.85
2016-09-27T09:56:02.312Z,20.85
2016-09-27T09:57:02.337Z,20.88
2016-09-27T09:58:02.356Z,20.95
2016-09-27T09:59:02.383Z,20.88
2016-09-27T10:00:02.403Z,20.92
2016-09-27T10:01:02.454Z,21.02
2016-09-27T10:02:02.462Z,21.12
2016-09-27T10:03:02.482Z,21.15
2016-09-27T10:04:02.493Z,21.2
2016-09-27T10:05:02.523Z,21.27
2016-09-27T10:06:02.551Z,21.25
2016-09-27T10:07:02.582Z,21.35
2016-09-27T10:08:02.607Z,21.39
2016-09-27T10:09:02.616Z,21.39
2016-09-27T10:10:02.645Z,21.43
2016-09-27T10:11:02.660Z,21.4
2016-09-27T10:12:02.681Z,21.55
2016-09-27T10:13:02.711Z,21.52
2016-09-27T10:14:02.748Z,21.55
2016-09-27T10:15:02.759Z,21.69
2016-09-27T10:16:02.796Z,21.75
2016-09-27T10:17:02.814Z,21.64
2016-09-27T10:18:02.833Z,21.8
2016-09-27T10:19:02.865Z,21.83
2016-09-27T10:20:02.882Z,21.93
2016-09-27T10:21:02.903Z,21.98
2016-09-27T10:22:02.932Z,21.99
2016-09-27T10:23:02.950Z,22.06
2016-09-27T10:24:02.984Z,22.1
2016-09-27T10:25:03.002Z,22.25
2016-09-27T10:26:03.028Z,22.26
2016-09-27T10:27:03.053Z,22.26
2016-09-27T10:28:03.084Z,22.32
2016-09-27T10:29:03.089Z,22.39
2016-09-27T10:30:03.128Z,22.51
2016-09-27T10:31:03.161Z,22.47
2016-09-27T10:32:03.166Z,22.48
2016-09-27T10:33:03.184Z,22.47
2016-09-27T10:34:03.538Z,22.63
2016-09-27T10:35:03.238Z,22.55
2016-09-27T10:36:03.297Z,22.66
2016-09-27T10:37:03.297Z,22.68
2016-09-27T10:38:03.328Z,22.73
2016-09-27T10:39:03.371Z,22.85
2016-09-27T10:40:03.369Z,22.84
2016-09-27T10:41:03.403Z,22.84
2016-09-27T10:42:03.416Z,22.98
2016-09-27T10:43:03.428Z,23
2016-09-27T10:44:03.465Z,22.98
2016-09-27T10:45:03.492Z,23.15
2016-09-27T10:46:03.521Z,23.2
2016-09-27T10:47:03.532Z,23.2
2016-09-27T10:48:03.563Z,23.21
2016-09-27T10:49:03.589Z,23.27
2016-09-27T10:50:03.609Z,23.27
2016-09-27T10:51:03.633Z,23.36
2016-09-27T10:52:03.664Z,23.48
2016-09-27T10:53:03.675Z,23.46
2016-09-27T10:54:03.710Z,23.59
2016-09-27T10:55:03.739Z,23.61
2016-09-27T10:56:03.758Z,23.63
2016-09-27T10:57:03.778Z,23.69
2016-09-27T10:58:03.808Z,23.71
2016-09-27T10:59:03.829Z,23.73
2016-09-27T11:00:03.861Z,23.73
2016-09-27T11:01:03.877Z,23.8
2016-09-27T11:02:03.899Z,23.87
2016-09-27T11:03:03.922Z,23.88
2016-09-27T11:04:03.955Z,23.99
2016-09-27T11:05:03.986Z,24.13
2016-09-27T11:06:03.998Z,24.06
2016-09-27T11:07:04.021Z,24.06
2016-09-27T11:08:04.050Z,24.14
2016-09-27T11:09:04.087Z,24.26
2016-09-27T11:10:04.107Z,24.29
2016-09-27T11:11:04.139Z,24.35
2016-09-27T11:12:04.162Z,24.45
2016-09-27T11:13:04.180Z,24.42
2016-09-27T11:14:04.216Z,24.48
2016-09-27T11:15:04.557Z,24.6
2016-09-27T11:16:04.292Z,24.63
2016-09-27T11:17:04.300Z,24.68
2016-09-27T11:18:04.310Z,24.61
2016-09-27T11:19:04.330Z,24.73
2016-09-27T11:20:04.479Z,24.78
2016-09-27T11:21:04.487Z,24.73
2016-09-27T11:22:04.496Z,24.77
2016-09-27T11:23:04.504Z,24.8
2016-09-27T11:24:04.517Z,24.88
2016-09-27T11:25:04.515Z,24.88
2016-09-27T11:26:04.523Z,24.96
2016-09-27T11:27:04.539Z,24.96
2016-09-27T11:28:04.582Z,25.03
2016-09-27T11:29:04.584Z,25.04
2016-09-27T11:30:04.618Z,25.04
2016-09-27T11:31:04.652Z,25.13
2016-09-27T11:32:04.673Z,25.18
2016-09-27T11:33:04.693Z,25.29
2016-09-27T11:34:04.728Z,25.25
2016-09-27T11:35:04.753Z,25.31
2016-09-27T11:36:04.779Z,25.36
2016-09-27T11:37:04.797Z,25.32
2016-09-27T11:38:04.825Z,25.32
2016-09-27T11:39:04.853Z,25.47
2016-09-27T11:40:04.884Z,25.46
2016-09-27T11:41:04.908Z,25.48
2016-09-27T11:42:05.246Z,25.53
2016-09-27T11:43:04.953Z,25.55
2016-09-27T11:44:04.991Z,25.58
2016-09-27T11:45:05.018Z,25.68
2016-09-27T11:46:05.030Z,25.72
2016-09-27T11:47:05.069Z,25.72
2016-09-27T11:48:05.120Z,25.62
2016-09-27T11:49:05.114Z,25.73
2016-09-27T11:50:05.167Z,25.75
2016-09-27T11:51:05.162Z,25.81
2016-09-27T11:52:05.201Z,25.81
2016-09-27T11:53:05.219Z,25.87
2016-09-27T11:54:05.253Z,25.87
2016-09-27T11:55:05.271Z,25.9
2016-09-27T11:56:05.301Z,25.96
2016-09-27T11:57:05.329Z,25.91
2016-09-27T11:58:05.380Z,25.91
2016-09-27T11:59:05.402Z,26
2016-09-27T12:00:05.404Z,25.98
2016-09-27T12:01:05.627Z,26
2016-09-27T12:02:05.459Z,26.03
2016-09-27T12:03:05.487Z,25.96
2016-09-27T12:04:05.516Z,26.02
2016-09-27T12:05:05.541Z,26.1
2016-09-27T12:06:05.557Z,26.1
2016-09-27T12:07:05.595Z,26.09
2016-09-27T12:08:05.630Z,26.1
2016-09-27T12:09:05.649Z,26.1
2016-09-27T12:10:05.687Z,26.1
2016-09-27T12:11:05.695Z,26.19
2016-09-27T12:12:05.724Z,26.26
2016-09-27T12:13:05.767Z,26.18
2016-09-27T12:14:05.775Z,26.18
2016-09-27T12:15:05.807Z,26.19
2016-09-27T12:16:05.842Z,26.25
2016-09-27T12:17:05.856Z,26.22
2016-09-27T12:18:06.315Z,26.26
2016-09-27T12:19:05.914Z,26.29
2016-09-27T12:20:05.941Z,26.31
2016-09-27T12:21:05.967Z,26.33
2016-09-27T12:22:05.987Z,26.36
2016-09-27T12:23:06.013Z,26.41
2016-09-27T12:24:06.047Z,26.45
2016-09-27T12:25:06.073Z,26.41
2016-09-27T12:26:06.102Z,26.48
2016-09-27T12:27:06.137Z,26.53
2016-09-27T12:28:06.168Z,26.52
2016-09-27T12:29:06.303Z,26.56
2016-09-27T12:30:06.305Z,26.63
2016-09-27T12:31:06.333Z,26.66
2016-09-27T12:32:06.452Z,26.62
2016-09-27T12:33:06.387Z,26.7
2016-09-27T12:34:06.459Z,26.77
2016-09-27T12:35:06.468Z,26.73
2016-09-27T12:36:06.478Z,26.78
2016-09-27T12:37:06.617Z,26.74
2016-09-27T12:38:06.620Z,26.75
2016-09-27T12:39:06.634Z,26.84
2016-09-27T12:40:06.643Z,26.93
2016-09-27T12:41:06.653Z,26.92
2016-09-27T12:42:06.657Z,26.95
2016-09-27T12:43:06.657Z,26.93
2016-09-27T12:44:06.671Z,26.93
2016-09-27T12:45:06.645Z,27
2016-09-27T12:46:06.644Z,27
2016-09-27T12:47:06.667Z,26.99
2016-09-27T12:48:06.717Z,27.02
2016-09-27T12:49:06.733Z,27.12
2016-09-27T12:50:06.757Z,27.07
2016-09-27T12:51:06.790Z,26.99
2016-09-27T12:52:06.816Z,27.08
2016-09-27T12:53:06.837Z,27.14
2016-09-27T12:54:06.870Z,26.99
2016-09-27T12:55:06.893Z,27.07
2016-09-27T12:56:06.921Z,27.02